createdAt,value
2023-02-07T00:01:22.842Z,16.17
2023-02-07T00:03:50.210Z,17.10
2023-02-07T00:06:19.796Z,17.35
2023-02-07T00:08:47.361Z,15.75
2023-02-07T00:11:17.071Z,15.25
2023-02-07T00:13:48.937Z,16.13
2023-02-07T00:16:16.612Z,16.45
2023-02-07T00:18:43.746Z,16.73
2023-02-07T00:21:15.938Z,16.30
2023-02-07T00:23:44.190Z,16.00
2023-02-07T00:26:12.456Z,16.80
2023-02-07T00:28:41.634Z,15.68
2023-02-07T00:31:10.343Z,15.73
2023-02-07T00:33:38.961Z,15.65
2023-02-07T00:36:09.350Z,15.10
2023-02-07T00:38:36.450Z,15.38
2023-02-07T00:41:04.081Z,15.95
2023-02-07T00:43:32.364Z,16.27
2023-02-07T00:46:01.785Z,17.40
2023-02-07T00:48:30.124Z,17.30
2023-02-07T00:50:58.095Z,16.52
2023-02-07T00:53:25.365Z,17.17
2023-02-07T00:55:52.916Z,15.88
2023-02-07T00:58:20.368Z,18.02
2023-02-07T01:00:48.124Z,19.05
2023-02-07T01:03:15.389Z,19.00
2023-02-07T01:05:42.646Z,18.10
2023-02-07T01:08:10.100Z,19.15
2023-02-07T01:10:40.929Z,16.55
2023-02-07T01:13:11.067Z,16.25
2023-02-07T01:15:43.447Z,15.65
2023-02-07T01:18:11.110Z,16.20
2023-02-07T01:20:39.351Z,15.73
2023-02-07T01:23:07.083Z,16.38
2023-02-07T01:28:04.309Z,15.35
2023-02-07T01:30:31.535Z,14.93
2023-02-07T01:32:58.489Z,17.20
2023-02-07T01:35:25.989Z,16.27
2023-02-07T01:37:54.111Z,16.13
2023-02-07T01:40:21.155Z,15.60
2023-02-07T01:42:49.483Z,17.98
2023-02-07T01:45:35.772Z,18.33
2023-02-07T01:48:20.766Z,16.75
2023-02-07T01:50:51.342Z,17.73
2023-02-07T01:53:22.377Z,16.33
2023-02-07T01:55:51.614Z,17.23
2023-02-07T01:58:18.724Z,16.92
2023-02-07T02:00:46.953Z,16.58
2023-02-07T02:03:13.874Z,20.15
2023-02-07T02:05:42.555Z,18.15
2023-02-07T02:08:10.024Z,19.58
2023-02-07T02:11:11.651Z,19.30
2023-02-07T02:14:11.268Z,20.70
2023-02-07T02:17:09.965Z,22.88
2023-02-07T02:19:56.360Z,26.63
2023-02-07T02:23:00.764Z,26.10
2023-02-07T02:25:36.727Z,26.35
2023-02-07T02:28:37.656Z,24.88
2023-02-07T02:31:42.041Z,25.15
2023-02-07T02:34:38.347Z,24.83
2023-02-07T02:37:16.928Z,24.63
2023-02-07T02:39:51.559Z,21.33
2023-02-07T02:42:19.798Z,21.15
2023-02-07T02:44:53.675Z,21.42
2023-02-07T02:47:21.892Z,22.85
2023-02-07T02:49:49.178Z,22.77
2023-02-07T02:52:16.398Z,21.60
2023-02-07T02:54:43.685Z,22.98
2023-02-07T02:57:40.338Z,22.83
2023-02-07T03:00:40.585Z,23.92
2023-02-07T03:03:20.520Z,25.60
2023-02-07T03:06:25.157Z,23.67
2023-02-07T03:09:23.215Z,23.30
2023-02-07T03:12:00.416Z,24.02
2023-02-07T03:14:37.383Z,25.92
2023-02-07T03:17:30.472Z,25.48
2023-02-07T03:20:32.533Z,25.58
2023-02-07T03:23:02.544Z,25.83
2023-02-07T03:25:32.235Z,24.27
2023-02-07T03:28:01.573Z,25.60
2023-02-07T03:30:32.796Z,25.55
2023-02-07T03:33:09.949Z,26.08
2023-02-07T03:36:04.367Z,25.63
2023-02-07T03:38:44.311Z,24.83
2023-02-07T03:41:24.910Z,24.42
2023-02-07T03:43:59.734Z,25.60
2023-02-07T03:46:27.081Z,24.23
2023-02-07T03:48:54.100Z,24.55
2023-02-07T03:51:20.950Z,24.48
2023-02-07T03:53:47.844Z,25.43
2023-02-07T03:56:14.826Z,20.85
2023-02-07T03:58:41.583Z,24.73
2023-02-07T04:01:08.651Z,26.05
2023-02-07T04:03:35.561Z,23.92
2023-02-07T04:06:02.712Z,24.98
2023-02-07T04:08:29.579Z,23.10
2023-02-07T04:11:04.187Z,22.98
2023-02-07T04:13:31.243Z,23.23
2023-02-07T04:15:58.222Z,23.55
2023-02-07T04:18:25.171Z,23.33
2023-02-07T04:20:52.081Z,24.13
2023-02-07T04:23:19.018Z,22.60
2023-02-07T04:25:45.854Z,22.20
2023-02-07T04:28:14.750Z,23.40
2023-02-07T04:30:41.555Z,24.10
2023-02-07T04:33:08.447Z,22.13
2023-02-07T04:35:35.607Z,22.85
2023-02-07T04:38:06.430Z,24.20
2023-02-07T04:40:33.356Z,22.95
2023-02-07T04:43:00.270Z,23.00
2023-02-07T04:45:27.242Z,17.42
2023-02-07T04:47:53.988Z,23.08
2023-02-07T04:50:20.789Z,21.80
2023-02-07T04:52:47.570Z,17.98
2023-02-07T04:55:14.366Z,22.37
2023-02-07T04:57:41.152Z,21.73
2023-02-07T05:00:09.124Z,22.15
2023-02-07T05:02:36.528Z,22.77
2023-02-07T05:05:03.444Z,22.38
2023-02-07T05:07:30.544Z,22.35
2023-02-07T05:09:57.437Z,21.85
2023-02-07T05:12:24.365Z,22.02
2023-02-07T05:14:51.122Z,22.80
2023-02-07T05:17:17.859Z,20.23
2023-02-07T05:19:45.921Z,21.10
2023-02-07T05:22:12.906Z,20.13
2023-02-07T05:24:39.888Z,19.92
2023-02-07T05:27:06.744Z,19.25
2023-02-07T05:29:33.538Z,21.40
2023-02-07T05:32:18.917Z,20.73
2023-02-07T05:34:46.021Z,20.73
2023-02-07T05:37:12.893Z,21.13
2023-02-07T05:39:39.689Z,21.70
2023-02-07T05:42:06.496Z,20.70
2023-02-07T05:44:33.312Z,20.85
2023-02-07T05:47:03.048Z,21.38
2023-02-07T05:49:29.914Z,22.23
2023-02-07T05:51:56.662Z,21.20
2023-02-07T05:54:23.910Z,22.20
2023-02-07T05:56:50.687Z,16.75
2023-02-07T05:59:17.604Z,20.80
2023-02-07T06:01:44.484Z,22.00
2023-02-07T06:04:11.388Z,19.77
2023-02-07T06:06:38.134Z,20.30
2023-02-07T06:09:05.145Z,19.77
2023-02-07T06:11:31.920Z,20.20
2023-02-07T06:13:59.205Z,20.92
2023-02-07T06:16:26.043Z,22.65
2023-02-07T06:18:52.864Z,20.98
2023-02-07T06:21:19.952Z,19.67
2023-02-07T06:23:48.952Z,19.85
2023-02-07T06:26:15.889Z,22.05
2023-02-07T06:28:43.507Z,21.05
2023-02-07T06:31:10.440Z,21.92
2023-02-07T06:33:37.502Z,21.45
2023-02-07T06:36:04.732Z,20.80
2023-02-07T06:38:31.682Z,21.48
2023-02-07T06:40:58.534Z,20.77
2023-02-07T06:43:25.384Z,21.35
2023-02-07T06:45:52.244Z,20.92
2023-02-07T06:48:19.022Z,21.88
2023-02-07T06:50:46.095Z,22.23
2023-02-07T06:53:13.835Z,20.20
2023-02-07T07:00:35.709Z,19.90
2023-02-07T07:03:03.546Z,21.00
2023-02-07T07:05:31.122Z,21.35
2023-02-07T07:07:58.177Z,21.95
2023-02-07T07:10:25.329Z,20.63
2023-02-07T07:12:52.167Z,21.55
2023-02-07T07:15:19.038Z,19.83
2023-02-07T07:17:46.182Z,19.92
2023-02-07T07:20:13.106Z,20.42
2023-02-07T07:22:40.223Z,22.25
2023-02-07T07:25:07.603Z,22.65
2023-02-07T07:27:34.485Z,23.75
2023-02-07T07:30:01.368Z,23.02
2023-02-07T07:32:34.039Z,24.25
2023-02-07T07:35:02.242Z,25.60
2023-02-07T07:37:29.055Z,24.25
2023-02-07T07:39:55.835Z,27.20
2023-02-07T07:42:22.721Z,25.17
2023-02-07T07:45:04.498Z,25.25
2023-02-07T07:47:31.548Z,24.23
2023-02-07T07:49:58.347Z,19.98
2023-02-07T07:52:26.304Z,25.38
2023-02-07T07:54:53.064Z,22.33
2023-02-07T07:57:21.362Z,22.53
2023-02-07T07:59:48.337Z,21.00
2023-02-07T08:02:15.276Z,24.63
2023-02-07T08:04:42.116Z,22.50
2023-02-07T08:07:09.033Z,23.42
2023-02-07T08:09:35.882Z,23.02
2023-02-07T08:12:02.787Z,17.17
2023-02-07T08:14:29.744Z,22.42
2023-02-07T08:16:56.661Z,22.50
2023-02-07T08:19:23.767Z,20.93
2023-02-07T08:21:50.640Z,23.35
2023-02-07T08:24:17.498Z,24.63
2023-02-07T08:26:44.394Z,23.07
2023-02-07T08:29:11.860Z,23.60
2023-02-07T08:31:39.143Z,22.92
2023-02-07T08:34:06.162Z,21.95
2023-02-07T08:36:33.115Z,21.90
2023-02-07T08:39:00.088Z,21.83
2023-02-07T08:41:27.021Z,20.20
2023-02-07T08:43:53.978Z,18.20
2023-02-07T08:46:21.135Z,21.98
2023-02-07T08:48:48.064Z,22.10
2023-02-07T08:51:14.969Z,21.53
2023-02-07T08:53:44.585Z,21.92
2023-02-07T08:56:11.450Z,17.73
2023-02-07T08:58:39.915Z,23.20
2023-02-07T09:01:11.207Z,23.10
2023-02-07T09:03:38.698Z,23.63
2023-02-07T09:06:09.064Z,23.52
2023-02-07T09:08:36.012Z,21.95
2023-02-07T09:11:09.146Z,22.27
2023-02-07T09:13:36.848Z,21.83
2023-02-07T09:16:03.805Z,23.50
2023-02-07T09:18:31.557Z,23.73
2023-02-07T09:20:58.608Z,23.42
2023-02-07T09:23:25.790Z,22.52
2023-02-07T09:25:53.336Z,20.77
2023-02-07T09:28:22.466Z,22.02
2023-02-07T09:30:50.279Z,20.92
2023-02-07T09:33:17.741Z,21.15
2023-02-07T09:35:49.092Z,22.42
2023-02-07T09:38:25.767Z,21.70
2023-02-07T09:40:54.150Z,21.07
2023-02-07T09:43:40.909Z,21.27
2023-02-07T09:46:27.520Z,19.95
2023-02-07T09:49:19.714Z,20.17
2023-02-07T09:51:47.262Z,21.02
2023-02-07T09:54:36.391Z,19.65
2023-02-07T09:57:10.150Z,21.00
2023-02-07T10:00:04.928Z,19.77
2023-02-07T10:02:39.534Z,20.13
2023-02-07T10:05:20.638Z,20.33
2023-02-07T10:07:49.664Z,20.17
2023-02-07T10:10:18.426Z,20.17
2023-02-07T10:12:50.961Z,21.25
2023-02-07T10:15:35.013Z,21.55
2023-02-07T10:18:17.305Z,20.27
2023-02-07T10:21:06.962Z,20.10
2023-02-07T10:24:04.651Z,20.10
2023-02-07T10:27:14.361Z,20.45
2023-02-07T10:29:46.703Z,20.88
2023-02-07T10:32:33.812Z,20.40
2023-02-07T10:35:14.664Z,20.52
2023-02-07T10:37:43.675Z,20.40
2023-02-07T10:40:27.576Z,20.52
2023-02-07T10:43:05.184Z,20.50
2023-02-07T10:45:32.583Z,20.70
2023-02-07T10:47:59.633Z,20.40
2023-02-07T10:50:30.406Z,19.30
2023-02-07T10:52:59.505Z,20.40
2023-02-07T10:55:46.141Z,19.58
2023-02-07T10:58:23.276Z,18.80
2023-02-07T11:00:54.798Z,18.13
2023-02-07T11:03:24.498Z,19.02
2023-02-07T11:06:04.696Z,17.92
2023-02-07T11:08:35.810Z,18.98
2023-02-07T11:11:21.646Z,18.77
2023-02-07T11:13:51.928Z,16.98
2023-02-07T11:16:21.260Z,17.02
2023-02-07T11:18:57.774Z,17.48
2023-02-07T11:21:38.346Z,18.60
2023-02-07T11:24:11.917Z,17.58
2023-02-07T11:26:51.064Z,18.00
2023-02-07T11:29:20.933Z,18.85
2023-02-07T11:31:49.755Z,17.95
2023-02-07T11:34:50.810Z,16.75
2023-02-07T11:37:18.025Z,16.95
2023-02-07T11:39:45.542Z,17.08
2023-02-07T11:42:17.802Z,16.92
2023-02-07T11:44:47.653Z,15.88
2023-02-07T11:47:21.976Z,15.13
2023-02-07T11:49:54.594Z,14.93
2023-02-07T11:52:22.189Z,13.90
2023-02-07T11:54:54.776Z,13.23
2023-02-07T11:57:23.648Z,13.20
2023-02-07T11:59:59.171Z,12.57
2023-02-07T12:02:28.786Z,13.13
2023-02-07T12:04:56.682Z,11.77
2023-02-07T12:07:32.308Z,11.32
2023-02-07T12:10:01.967Z,12.15
2023-02-07T12:13:00.346Z,11.82
2023-02-07T12:15:33.819Z,9.35
2023-02-07T12:18:17.985Z,10.20
2023-02-07T12:21:14.992Z,9.57
2023-02-07T12:24:20.659Z,9.10
2023-02-07T12:27:12.319Z,9.75
2023-02-07T12:30:04.626Z,11.48
2023-02-07T12:32:36.935Z,12.90
2023-02-07T12:35:26.520Z,12.25
2023-02-07T12:38:20.664Z,12.10
2023-02-07T12:40:57.192Z,12.00
2023-02-07T12:43:33.745Z,12.32
2023-02-07T12:46:07.694Z,12.30
2023-02-07T12:48:51.253Z,11.27
2023-02-07T12:51:23.595Z,10.85
2023-02-07T12:53:53.593Z,11.80
2023-02-07T12:56:31.196Z,10.70
2023-02-07T12:59:26.900Z,11.50
2023-02-07T13:02:16.019Z,11.32
2023-02-07T13:05:21.725Z,10.98
2023-02-07T13:08:26.219Z,10.40
2023-02-07T13:11:24.502Z,10.02
2023-02-07T13:13:59.385Z,9.18
2023-02-07T13:16:52.681Z,10.30
2023-02-07T13:19:38.219Z,9.27
2023-02-07T13:22:28.827Z,9.48
2023-02-07T13:24:56.376Z,8.23
2023-02-07T13:27:25.046Z,8.77
2023-02-07T13:29:52.685Z,9.50
2023-02-07T13:32:23.360Z,9.03
2023-02-07T13:34:50.283Z,9.25
2023-02-07T13:37:19.165Z,8.35
2023-02-07T13:40:18.422Z,8.80
2023-02-07T13:42:54.737Z,8.00
2023-02-07T13:45:32.364Z,8.35
2023-02-07T13:48:22.325Z,8.68
2023-02-07T13:51:07.217Z,6.93
2023-02-07T13:54:03.624Z,6.63
2023-02-07T13:56:54.455Z,8.02
2023-02-07T13:59:38.502Z,7.20
2023-02-07T14:02:22.712Z,7.90
2023-02-07T14:04:51.134Z,8.05
2023-02-07T14:07:38.160Z,8.20
2023-02-07T14:10:06.577Z,8.82
2023-02-07T14:12:37.150Z,8.50
2023-02-07T14:15:30.592Z,8.23
2023-02-07T14:18:26.146Z,7.78
2023-02-07T14:21:02.254Z,8.02
2023-02-07T14:23:51.861Z,7.43
2023-02-07T14:26:37.659Z,7.40
2023-02-07T14:29:23.250Z,7.82
2023-02-07T14:32:20.998Z,7.32
2023-02-07T14:35:04.129Z,7.97
2023-02-07T14:37:54.216Z,7.60
2023-02-07T14:40:35.105Z,7.45
2023-02-07T14:43:11.751Z,7.65
2023-02-07T14:45:44.156Z,8.10
2023-02-07T14:48:41.827Z,8.27
2023-02-07T14:51:15.613Z,8.90
2023-02-07T14:53:45.173Z,9.05
2023-02-07T14:56:45.858Z,8.95
2023-02-07T14:59:25.419Z,9.55
2023-02-07T15:01:52.439Z,9.27
2023-02-07T15:04:19.274Z,8.90
2023-02-07T15:06:46.989Z,9.20
2023-02-07T15:09:26.899Z,8.63
2023-02-07T15:12:10.637Z,9.13
2023-02-07T15:14:40.344Z,8.30
2023-02-07T15:17:07.314Z,7.87
2023-02-07T15:19:35.648Z,9.20
2023-02-07T15:22:09.764Z,8.07
2023-02-07T15:24:51.432Z,8.65
2023-02-07T15:27:27.299Z,9.57
2023-02-07T15:30:08.410Z,8.65
2023-02-07T15:32:43.024Z,8.95
2023-02-07T15:35:17.733Z,9.10
2023-02-07T15:37:47.222Z,9.15
2023-02-07T15:40:24.866Z,9.48
2023-02-07T15:42:57.792Z,9.85
2023-02-07T15:45:27.251Z,10.13
2023-02-07T15:48:03.490Z,8.93
2023-02-07T15:50:31.210Z,8.68
2023-02-07T15:53:32.733Z,9.82
2023-02-07T15:56:00.367Z,9.43
2023-02-07T15:58:58.656Z,10.00
2023-02-07T16:01:31.167Z,9.18
2023-02-07T16:04:03.924Z,8.82
2023-02-07T16:06:32.827Z,8.85
2023-02-07T16:09:04.388Z,8.52
2023-02-07T16:11:35.212Z,7.93
2023-02-07T16:14:42.659Z,7.82
2023-02-07T16:17:28.132Z,6.82
2023-02-07T16:19:55.167Z,7.60
2023-02-07T16:22:30.885Z,7.23
2023-02-07T16:25:23.201Z,7.80
2023-02-07T16:27:52.315Z,8.65
2023-02-07T16:30:23.280Z,7.15
2023-02-07T16:32:50.551Z,7.55
2023-02-07T16:35:25.884Z,6.20
2023-02-07T16:37:53.959Z,7.60
2023-02-07T16:42:50.194Z,7.10
2023-02-07T16:45:23.040Z,7.65
2023-02-07T16:47:50.083Z,7.82
2023-02-07T16:50:23.427Z,8.23
2023-02-07T16:52:51.997Z,8.25
2023-02-07T16:55:20.267Z,8.32
2023-02-07T16:57:48.889Z,8.55
2023-02-07T17:00:26.395Z,8.38
2023-02-07T17:02:53.979Z,8.40
2023-02-07T17:05:22.338Z,8.70
2023-02-07T17:07:49.901Z,8.98
2023-02-07T17:10:24.971Z,9.27
2023-02-07T17:12:52.119Z,10.07
2023-02-07T17:15:18.916Z,7.32
2023-02-07T17:17:46.353Z,8.90
2023-02-07T17:20:19.567Z,9.65
2023-02-07T17:22:46.363Z,9.35
2023-02-07T17:25:13.164Z,8.43
2023-02-07T17:27:40.005Z,9.05
2023-02-07T17:30:23.061Z,9.48
2023-02-07T17:32:50.214Z,10.30
2023-02-07T17:35:17.072Z,9.05
2023-02-07T17:37:44.087Z,10.85
2023-02-07T17:40:22.648Z,10.17
2023-02-07T17:42:49.676Z,9.52
2023-02-07T17:45:16.948Z,9.60
2023-02-07T17:47:44.260Z,10.38
2023-02-07T17:50:18.007Z,10.70
2023-02-07T17:52:45.324Z,10.98
2023-02-07T17:55:12.419Z,7.90
2023-02-07T17:57:41.336Z,9.77
2023-02-07T18:00:39.885Z,10.80
2023-02-07T18:03:08.021Z,10.35
2023-02-07T18:05:49.738Z,10.25
2023-02-07T18:08:27.328Z,10.15
2023-02-07T18:11:21.662Z,9.98
2023-02-07T18:14:09.078Z,9.90
2023-02-07T18:16:39.232Z,9.38
2023-02-07T18:19:07.267Z,9.13
2023-02-07T18:21:37.432Z,8.73
2023-02-07T18:24:04.722Z,9.52
2023-02-07T18:26:31.588Z,9.73
2023-02-07T18:28:58.422Z,9.52
2023-02-07T18:31:25.390Z,8.75
2023-02-07T18:33:54.180Z,8.33
2023-02-07T18:36:23.381Z,9.30
2023-02-07T18:38:50.385Z,9.40
2023-02-07T18:41:23.029Z,8.63
2023-02-07T18:43:50.160Z,9.45
2023-02-07T18:46:19.384Z,9.60
2023-02-07T18:48:49.564Z,8.77
2023-02-07T18:51:17.340Z,8.88
2023-02-07T18:53:44.472Z,9.30
2023-02-07T18:56:14.325Z,6.80
2023-02-07T18:58:41.533Z,8.20
2023-02-07T19:01:13.015Z,8.23
2023-02-07T19:03:39.865Z,9.13
2023-02-07T19:06:08.043Z,9.25
2023-02-07T19:08:35.182Z,9.75
2023-02-07T19:11:04.874Z,9.48
2023-02-07T19:13:33.187Z,10.15
2023-02-07T19:16:06.323Z,9.77
2023-02-07T19:18:33.708Z,9.00
2023-02-07T19:21:09.239Z,8.88
2023-02-07T19:23:37.097Z,8.85
2023-02-07T19:26:04.704Z,8.82
2023-02-07T19:28:32.828Z,9.07
2023-02-07T19:31:02.112Z,9.18
2023-02-07T19:33:29.095Z,9.35
2023-02-07T19:35:56.089Z,8.40
2023-02-07T19:38:23.590Z,8.95
2023-02-07T19:40:57.492Z,8.25
2023-02-07T19:43:24.910Z,8.60
2023-02-07T19:45:52.019Z,8.55
2023-02-07T19:48:21.010Z,8.75
2023-02-07T19:53:16.133Z,9.40
2023-02-07T19:55:42.992Z,9.25
2023-02-07T19:58:09.908Z,9.23
2023-02-07T20:00:36.663Z,9.57
2023-02-07T20:03:03.582Z,10.15
2023-02-07T20:05:30.571Z,10.60
2023-02-07T20:07:58.701Z,12.07
2023-02-07T20:10:25.436Z,14.63
2023-02-07T20:12:52.304Z,12.15
2023-02-07T20:15:19.257Z,11.07
2023-02-07T20:17:46.149Z,7.57
2023-02-07T20:20:14.425Z,8.95
2023-02-07T20:22:41.294Z,10.15
2023-02-07T20:25:11.288Z,9.98
2023-02-07T20:27:38.072Z,10.50
2023-02-07T20:30:05.336Z,10.55
2023-02-07T20:32:32.200Z,9.90
2023-02-07T20:34:59.059Z,10.15
2023-02-07T20:37:25.989Z,10.02
2023-02-07T20:39:52.937Z,10.13
2023-02-07T20:42:19.827Z,10.27
2023-02-07T20:44:46.632Z,10.50
2023-02-07T20:47:13.404Z,9.98
2023-02-07T20:49:40.479Z,9.45
2023-02-07T20:52:07.310Z,9.98
2023-02-07T20:54:34.132Z,9.85
2023-02-07T20:57:01.297Z,11.35
2023-02-07T20:59:30.092Z,14.05
2023-02-07T21:01:57.016Z,17.05
2023-02-07T21:04:25.410Z,19.50
2023-02-07T21:06:52.810Z,19.00
2023-02-07T21:09:20.450Z,17.20
2023-02-07T21:11:50.813Z,18.50
2023-02-07T21:14:26.526Z,18.48
2023-02-07T21:16:58.782Z,17.55
2023-02-07T21:19:25.970Z,15.73
2023-02-07T21:21:54.902Z,12.35
2023-02-07T21:24:22.511Z,9.90
2023-02-07T21:26:53.724Z,9.88
2023-02-07T21:29:21.612Z,9.77
2023-02-07T21:36:44.946Z,12.15
2023-02-07T21:39:12.356Z,12.65
2023-02-07T21:41:44.501Z,11.50
2023-02-07T21:44:13.059Z,14.93
2023-02-07T21:46:42.157Z,13.85
2023-02-07T21:49:14.576Z,15.30
2023-02-07T21:51:43.137Z,26.67
2023-02-07T21:54:09.983Z,18.67
2023-02-07T21:56:39.143Z,16.00
2023-02-07T21:59:08.373Z,15.07
2023-02-07T22:01:36.636Z,14.25
2023-02-07T22:04:05.892Z,12.25
2023-02-07T22:06:33.413Z,12.70
2023-02-07T22:09:01.745Z,13.30
2023-02-07T22:11:31.743Z,11.98
2023-02-07T22:13:58.704Z,12.73
2023-02-07T22:16:28.345Z,13.88
2023-02-07T22:18:57.248Z,12.60
2023-02-07T22:21:41.920Z,13.13
2023-02-07T22:24:10.349Z,13.35
2023-02-07T22:26:37.143Z,13.15
2023-02-07T22:29:05.861Z,12.68
2023-02-07T22:31:35.209Z,12.80
2023-02-07T22:34:13.007Z,12.90
2023-02-07T22:39:08.904Z,11.57
2023-02-07T22:41:36.265Z,12.23
2023-02-07T22:44:03.754Z,11.98
2023-02-07T22:46:31.188Z,12.52
2023-02-07T22:48:58.072Z,14.30
2023-02-07T22:51:32.307Z,13.43
2023-02-07T22:54:01.810Z,12.35
2023-02-07T22:56:28.803Z,12.80
2023-02-07T22:58:56.187Z,13.18
2023-02-07T23:01:25.593Z,13.05
2023-02-07T23:03:53.433Z,13.07
2023-02-07T23:08:48.413Z,13.85
2023-02-07T23:11:16.570Z,13.75
2023-02-07T23:13:44.211Z,13.65
2023-02-07T23:16:13.414Z,14.25
2023-02-07T23:18:40.577Z,13.80
2023-02-07T23:21:12.374Z,13.75
2023-02-07T23:23:39.932Z,13.60
2023-02-07T23:26:12.701Z,14.50
2023-02-07T23:28:39.811Z,13.73
2023-02-07T23:31:08.473Z,15.32
2023-02-07T23:33:36.231Z,13.77
2023-02-07T23:36:04.046Z,14.63
2023-02-07T23:40:57.967Z,12.63
2023-02-07T23:43:25.199Z,13.00
2023-02-07T23:45:52.413Z,10.25
2023-02-07T23:48:19.829Z,13.93
2023-02-07T23:50:54.326Z,13.25
2023-02-07T23:53:22.126Z,12.27
2023-02-07T23:58:16.890Z,14.32
